Fredericksburg, VA

5:33 PM EDT on April 19, 2018 (GMT -0400)
Ridge Pointe | | Change Station
Active Advisory: Freeze Warning Active Notice: Public Information Statement

Elev 102 ft 38.32 °N, 77.45 °W | Updated 2 seconds ago

Overcast
Overcast
55.7 °F
Feels Like 55.7 °F
N
2.0
Wind Variable Wind from NNW
Gusts 5.0 mph

Today
High -- | Low -- °F
--% Chance of Precip.
Yesterday
High -- | Low -- °F
Precip. -- in
Pressure 29.98 in
Visibility 10.0 miles
Clouds Overcast 6500 ft
Dew Point 34 °F
Humidity 43%
Rainfall 0.07 in
Snow Depth Not available.
6:28 AM 7:50 PM
Waxing Crescent, 18% visible
METAR KEZF 192115Z AUTO 31014G26KT 280V340 10SM OVC065 14/00 A2998 RMK AO2 T01361005
Pressure 29.98 in
Visibility 10.0 miles
Clouds Overcast 6500 ft
Dew Point 34 °F
Humidity 43%
Rainfall 0.07 in
Snow Depth Not available.
6:28 AM 7:50 PM
Waxing Crescent, 18% visible
METAR KEZF 192115Z AUTO 31014G26KT 280V340 10SM OVC065 14/00 A2998 RMK AO2 T01361005

Get Your Daily Forecast Email!

Thanks for signing up!

Be on the lookout for a verification email in your inbox.

You'll start receiving severe weather alerts in your inbox..

×

10-Day Weather Forecast

Almanac

Astronomy

Apr. 19, 2018 Rise Set
Actual Time
Civil Twilight
Nautical Twilight
Astronomical Twilight
Moon
Length of Visible Light
Length of Day
Tomorrow will be .
, % of the Moon is Illuminated

Today's Extremes

State Highs State Lows

Community

WunderPhotos

Category 6

Welcome to Category 6. This is the collective home for Weather Underground's featured writeups by Dr. Jeff Masters (right), Bob Henson (left), Chris Burt, and other regular contributors.

Nearby

Air Quality

  Air Quality AQ Index Pollutant
Not available.

Snow Depth

Station Depth Elevation

Earthquake Activity

City Distance Mag. Time & Date
Minimum magnitude displayed is 2.5.

Coastal Water Temperatures

Place Temperature

Stations

Nearby Weather Stations

Station Location Temp. Windchill Dew Point Humidity Wind Precip. Elev Updated Type
                   

Watches & Warnings

Freeze Warning
Issued: 5:10 PM EDT Apr. 19, 2018 – National Weather Service

... Freeze warning remains in effect from 2 am to 9 am EDT
Friday...

* temperatures... falling into the upper 20s to lower 30s tonight.

* Impacts... frost and freeze conditions may damage sensitive
vegetation. Take steps now to protect tender plants from the
cold.

Precautionary/preparedness actions...

A freeze warning means sub-freezing temperatures are imminent or
highly likely. These conditions will kill crops and other
sensitive vegetation.